Time;durP1;ratioP1;P1;durP2;ratioP2;P2;SDS_P1;SDS_P2;PMS_P1;PMS_P2;Temp;Humidity;BMP_temperature;BMP_pressure;BME280_temperature;BME280_humidity;BME280_pressure;Samples;Min_cycle;Max_cycle;Signal;HPM_P1;HPM_P2
2023/08/09 00:00:28;;;;;;;;;;;;;;;11.76;100.00;101142.75;4938213;28;20290;-87
2023/08/09 00:03:14;;;;;;;;;;;;;;;11.74;100.00;101148.13;4922099;29;19933;-88
2023/08/09 00:05:59;;;;;;;;;;;;;;;11.72;100.00;101136.69;4927769;29;19933;-87
2023/08/09 00:08:45;;;;;;;;;;;;;;;11.70;100.00;101143.88;4937163;28;19934;-85
2023/08/09 00:11:33;;;;;;;;;;;;;;;11.68;100.00;101148.41;4927749;28;20030;-88
2023/08/09 00:14:19;;;;;;;;;;;;;;;11.66;100.00;101147.63;4940275;28;19930;-88
2023/08/09 00:17:05;;;;;;;;;;;;;;;11.62;100.00;101151.31;4939927;28;19942;-89
2023/08/09 00:20:02;;;;;;;;;;;;;;;11.58;100.00;101147.94;4942367;28;19957;-90
2023/08/09 00:22:48;;;;;;;;;;;;;;;11.56;100.00;101149.81;4940510;28;20370;-86
2023/08/09 00:25:34;;;;;;;;;;;;;;;11.53;100.00;101150.81;4940089;28;19945;-86
2023/08/09 00:28:19;;;;;;;;;;;;;;;11.50;100.00;101156.22;4927531;28;19918;-87
2023/08/09 00:31:17;;;;;;;;;;;;;;;11.49;100.00;101151.88;4930593;29;19935;-87
2023/08/09 00:34:06;;;;;;;;;;;;;;;11.48;100.00;101150.16;4953858;28;19974;-87
2023/08/09 00:36:54;;;;;;;;;;;;;;;11.45;100.00;101166.22;4921478;28;19937;-88
2023/08/09 00:39:40;;;;;;;;;;;;;;;11.43;100.00;101160.09;4949220;28;19984;-87
2023/08/09 00:42:27;;;;;;;;;;;;;;;11.40;100.00;101160.22;4937298;28;19926;-86
2023/08/09 00:45:13;;;;;;;;;;;;;;;11.39;100.00;101162.00;4939401;28;20378;-87
2023/08/09 00:48:00;;;;;;;;;;;;;;;11.38;100.00;101162.06;4945202;28;19926;-85
2023/08/09 00:51:27;;;;;;;;;;;;;;;11.36;100.00;101158.63;4962334;28;19926;-89
2023/08/09 00:54:15;;;;;;;;;;;;;;;11.32;100.00;101160.56;4960470;28;20158;-87
2023/08/09 00:57:01;;;;;;;;;;;;;;;11.28;100.00;101156.34;4954133;28;19922;-85
2023/08/09 00:59:56;;;;;;;;;;;;;;;11.26;100.00;101164.34;4956253;28;21117;-87
2023/08/09 01:02:42;;;;;;;;;;;;;;;11.24;100.00;101160.88;4940932;28;19930;-86
2023/08/09 01:05:30;;;;;;;;;;;;;;;11.22;100.00;101168.03;4955331;28;20636;-86
2023/08/09 01:08:27;;;;;;;;;;;;;;;11.20;100.00;101161.09;4946886;28;19929;-86
2023/08/09 01:11:38;;;;;;;;;;;;;;;11.20;100.00;101166.38;4941585;28;20031;-86
2023/08/09 01:14:23;;;;;;;;;;;;;;;11.18;100.00;101160.31;4956671;28;20098;-88
2023/08/09 01:17:13;;;;;;;;;;;;;;;11.17;100.00;101155.94;4967683;28;20012;-88
2023/08/09 01:20:01;;;;;;;;;;;;;;;11.16;100.00;101159.50;4945931;28;20012;-89
2023/08/09 01:22:57;;;;;;;;;;;;;;;11.11;100.00;101170.31;4943345;28;20020;-89
2023/08/09 01:25:45;;;;;;;;;;;;;;;11.06;100.00;101161.69;4955257;28;19957;-88
2023/08/09 01:28:37;;;;;;;;;;;;;;;11.05;100.00;101173.22;4956399;28;20776;-88
2023/08/09 01:31:25;;;;;;;;;;;;;;;11.03;100.00;101169.75;4938099;28;19951;-89
2023/08/09 01:34:11;;;;;;;;;;;;;;;11.01;100.00;101167.19;4941836;28;19922;-87
2023/08/09 01:36:57;;;;;;;;;;;;;;;10.99;100.00;101176.97;4942886;28;19929;-89
2023/08/09 01:39:46;;;;;;;;;;;;;;;10.97;100.00;101176.19;4926062;28;19922;-89
2023/08/09 01:42:32;;;;;;;;;;;;;;;10.95;100.00;101175.41;4931712;28;19930;-88
2023/08/09 01:45:19;;;;;;;;;;;;;;;10.92;100.00;101180.81;4951764;28;19925;-88
2023/08/09 01:48:07;;;;;;;;;;;;;;;10.90;100.00;101180.84;4942298;28;20470;-88
2023/08/09 01:50:57;;;;;;;;;;;;;;;10.90;100.00;101186.16;4934947;28;19926;-87
2023/08/09 01:53:42;;;;;;;;;;;;;;;10.90;100.00;101180.84;4937839;28;19926;-88
2023/08/09 01:56:28;;;;;;;;;;;;;;;10.91;100.00;101189.69;4935745;28;19985;-87
2023/08/09 01:59:14;;;;;;;;;;;;;;;10.89;100.00;101189.72;4924998;29;20009;-87
2023/08/09 02:02:01;;;;;;;;;;;;;;;10.90;100.00;101190.59;5037022;23;19933;-89
2023/08/09 02:04:47;;;;;;;;;;;;;;;10.89;100.00;101195.03;5003857;28;19978;-88
2023/08/09 02:07:32;;;;;;;;;;;;;;;10.89;100.00;101194.19;5001252;28;20338;-87
2023/08/09 02:10:18;;;;;;;;;;;;;;;10.88;100.00;101198.59;5000516;28;20338;-87
2023/08/09 02:13:04;;;;;;;;;;;;;;;10.87;100.00;101199.53;4980167;28;19928;-88
2023/08/09 02:15:54;;;;;;;;;;;;;;;10.86;100.00;101200.47;4999186;28;19968;-89
2023/08/09 02:18:40;;;;;;;;;;;;;;;10.83;100.00;101200.56;4995691;28;19925;-88
2023/08/09 02:21:26;;;;;;;;;;;;;;;10.80;100.00;101191.00;4984893;28;19965;-87
2023/08/09 02:24:15;;;;;;;;;;;;;;;10.79;100.00;101193.69;5012232;28;20560;-87
2023/08/09 02:27:01;;;;;;;;;;;;;;;10.79;100.00;101199.00;5000487;28;19949;-89
2023/08/09 02:29:46;;;;;;;;;;;;;;;10.77;100.00;101198.19;4985050;28;20028;-88
2023/08/09 02:32:33;;;;;;;;;;;;;;;10.76;100.00;101204.41;4997899;28;19975;-89
2023/08/09 02:35:19;;;;;;;;;;;;;;;10.75;100.00;101205.34;4994972;28;20283;-88
2023/08/09 02:38:05;;;;;;;;;;;;;;;10.75;100.00;101213.28;5002217;28;20383;-87
2023/08/09 02:41:05;;;;;;;;;;;;;;;10.72;100.00;101204.53;4997266;28;20375;-90
2023/08/09 02:44:06;;;;;;;;;;;;;;;10.72;100.00;101212.50;5006555;28;19968;-90
2023/08/09 02:47:36;;;;;;;;;;;;;;;;;;;;;
2023/08/09 02:50:26;;;;;;;;;;;;;;;10.69;100.00;101212.59;4996839;28;19925;-88
2023/08/09 02:53:23;;;;;;;;;;;;;;;10.68;100.00;101218.81;5003238;28;20004;-88
2023/08/09 02:56:12;;;;;;;;;;;;;;;10.67;100.00;101216.25;5002353;28;19922;-92
2023/08/09 03:48:29;;;;;;;;;;;;;;;10.52;100.00;101257.41;5494531;23;20384;-88
2023/08/09 03:51:15;;;;;;;;;;;;;;;10.51;100.00;101261.00;4985354;28;19936;-88
2023/08/09 03:54:01;;;;;;;;;;;;;;;10.50;100.00;101269.88;4984915;28;19925;-88
2023/08/09 03:56:46;;;;;;;;;;;;;;;10.47;100.00;101262.91;4984033;28;19949;-88
2023/08/09 03:59:32;;;;;;;;;;;;;;;10.45;100.00;101270.00;4980151;28;19957;-87
2023/08/09 04:02:27;;;;;;;;;;;;;;;10.42;100.00;101271.00;4986539;28;19935;-87
2023/08/09 04:05:15;;;;;;;;;;;;;;;10.39;100.00;101271.09;4983148;28;19929;-88
2023/08/09 04:08:02;;;;;;;;;;;;;;;10.37;100.00;101272.06;4997978;28;20365;-89
2023/08/09 04:10:50;;;;;;;;;;;;;;;10.33;100.00;101271.31;4990471;28;19925;-89
2023/08/09 04:13:36;;;;;;;;;;;;;;;10.33;100.00;101281.91;4979520;28;19944;-87
2023/08/09 04:16:25;;;;;;;;;;;;;;;10.32;100.00;101277.53;4988348;28;19929;-87
2023/08/09 04:19:11;;;;;;;;;;;;;;;10.33;100.00;101281.91;4942100;28;20045;-87
2023/08/09 04:22:02;;;;;;;;;;;;;;;10.35;100.00;101285.34;4923046;28;20469;-87
2023/08/09 04:24:48;;;;;;;;;;;;;;;10.35;100.00;101293.28;4927619;28;20907;-88
2023/08/09 04:27:33;;;;;;;;;;;;;;;10.33;100.00;101292.50;4924097;28;19925;-89
2023/08/09 04:30:23;;;;;;;;;;;;;;;10.35;100.00;101289.78;4941281;28;19926;-88
2023/08/09 04:33:12;;;;;;;;;;;;;;;10.34;100.00;101299.50;4927285;28;19933;-87
2023/08/09 04:35:57;;;;;;;;;;;;;;;10.32;100.00;101298.72;4916796;28;21809;-88
2023/08/09 04:38:44;;;;;;;;;;;;;;;10.32;100.00;101302.22;4927470;28;19926;-88
2023/08/09 04:41:31;;;;;;;;;;;;;;;10.33;100.00;101298.66;4938735;28;19922;-88
2023/08/09 04:44:17;;;;;;;;;;;;;;;10.37;100.00;101301.19;4939820;28;19923;-89
2023/08/09 04:47:03;;;;;;;;;;;;;;;10.38;100.00;101301.13;4944387;28;19945;-88
2023/08/09 04:49:49;;;;;;;;;;;;;;;10.39;100.00;101301.97;4952700;28;19928;-87
2023/08/09 04:52:35;;;;;;;;;;;;;;;10.42;100.00;101305.41;4984190;28;19979;-87
2023/08/09 04:55:25;;;;;;;;;;;;;;;10.46;100.00;101314.09;4973590;28;19924;-88
2023/08/09 04:58:11;;;;;;;;;;;;;;;10.51;100.00;101311.28;4977549;28;19925;-88
2023/08/09 05:00:59;;;;;;;;;;;;;;;10.53;100.00;101312.09;4972883;28;19960;-88
2023/08/09 05:03:45;;;;;;;;;;;;;;;10.57;100.00;101311.06;4991485;28;19931;-87
2023/08/09 05:06:31;;;;;;;;;;;;;;;10.61;100.00;101315.31;4987042;28;19975;-87
2023/08/09 05:09:17;;;;;;;;;;;;;;;10.69;100.00;101320.31;4995452;28;20102;-89
2023/08/09 05:12:02;;;;;;;;;;;;;;;10.78;100.00;101327.91;4987191;28;20353;-89
2023/08/09 05:14:48;;;;;;;;;;;;;;;10.84;100.00;101335.59;4987314;28;20559;-88
2023/08/09 05:17:33;;;;;;;;;;;;;;;10.91;100.00;101330.06;4983482;28;20837;-87
2023/08/09 05:20:22;;;;;;;;;;;;;;;10.98;100.00;101337.72;4986062;28;19928;-88
2023/08/09 05:23:10;;;;;;;;;;;;;;;11.08;100.00;101337.34;4971719;28;19944;-88
2023/08/09 05:25:59;;;;;;;;;;;;;;;11.16;100.00;101342.38;4977443;28;19929;-87
2023/08/09 05:28:44;;;;;;;;;;;;;;;11.26;100.00;101335.75;4984375;28;20027;-90
2023/08/09 05:31:30;;;;;;;;;;;;;;;11.36;100.00;101336.25;4973079;28;19930;-90
2023/08/09 05:34:19;;;;;;;;;;;;;;;11.45;100.00;101346.50;4985879;28;19947;-88
2023/08/09 05:37:04;;;;;;;;;;;;;;;11.57;100.00;101338.94;4987442;28;19925;-89
2023/08/09 05:39:50;;;;;;;;;;;;;;;11.69;100.00;101354.34;4977322;28;19968;-88
2023/08/09 06:25:13;;;;;;;;;;;;;;;14.67;100.00;101378.38;5363636;23;19910;-81
2023/08/09 06:28:04;;;;;;;;;;;;;;;14.90;100.00;101384.28;4995491;28;19984;-78
2023/08/09 06:33:32;;;;;;;;;;;;;;;15.33;100.00;101394.34;5033458;22;19965;-77
2023/08/09 06:36:18;;;;;;;;;;;;;;;15.55;100.00;101393.97;4975745;28;19980;-77
2023/08/09 06:39:04;;;;;;;;;;;;;;;15.75;100.00;101389.28;4962669;28;20170;-77
2023/08/09 06:41:49;;;;;;;;;;;;;;;15.96;100.00;101389.00;4971995;28;20539;-77
2023/08/09 06:44:35;;;;;;;;;;;;;;;16.13;100.00;101391.50;4974689;28;19966;-78
2023/08/09 06:47:24;;;;;;;;;;;;;;;16.35;100.00;101392.84;4977897;28;19949;-79
2023/08/09 06:50:26;;;;;;;;;;;;;;;16.56;100.00;101395.16;4997194;28;20444;-81
2023/08/09 06:53:13;;;;;;;;;;;;;;;16.78;100.00;101399.19;4992653;28;19921;-81
2023/08/09 06:56:01;;;;;;;;;;;;;;;16.95;100.00;101393.59;4981583;28;19925;-89
2023/08/09 06:58:47;;;;;;;;;;;;;;;17.16;100.00;101403.06;4946067;28;19925;-89
2023/08/09 07:01:33;;;;;;;;;;;;;;;17.39;100.00;101404.25;4956077;28;20607;-89
2023/08/09 07:04:18;;;;;;;;;;;;;;;17.58;100.00;101408.38;4968025;28;20011;-88
2023/08/09 07:07:07;;;;;;;;;;;;;;;17.78;100.00;101401.69;4967457;28;19921;-89
2023/08/09 07:09:52;;;;;;;;;;;;;;;17.96;100.00;101404.94;4969443;28;19925;-87
2023/08/09 07:12:38;;;;;;;;;;;;;;;18.07;100.00;101400.72;4966288;28;19917;-85
2023/08/09 07:15:24;;;;;;;;;;;;;;;18.17;100.00;101407.13;4953210;28;20098;-89
2023/08/09 07:18:09;;;;;;;;;;;;;;;18.30;100.00;101415.22;4972041;28;20075;-89
2023/08/09 07:20:55;;;;;;;;;;;;;;;18.39;100.00;101419.91;4984857;28;19929;-87
2023/08/09 07:23:48;;;;;;;;;;;;;;;18.48;100.00;101418.41;4984280;28;20381;-88
2023/08/09 07:26:35;;;;;;;;;;;;;;;18.64;100.00;101414.66;4976685;28;19922;-84
2023/08/09 07:29:20;;;;;;;;;;;;;;;18.69;100.00;101418.72;4988317;28;19945;-82
2023/08/09 07:32:07;;;;;;;;;;;;;;;18.78;100.00;101425.25;4982433;28;19973;-84
2023/08/09 07:34:53;;;;;;;;;;;;;;;18.84;100.00;101427.50;4969772;28;19926;-82
2023/08/09 07:37:40;;;;;;;;;;;;;;;18.93;100.00;101427.78;4990653;28;19933;-85
2023/08/09 07:40:26;;;;;;;;;;;;;;;18.97;95.46;101423.94;4999886;28;21805;-83
2023/08/09 07:43:11;;;;;;;;;;;;;;;19.04;99.98;101424.38;4982609;28;19926;-81
2023/08/09 07:45:58;;;;;;;;;;;;;;;19.11;99.04;101421.13;5001135;28;19922;-82
2023/08/09 07:48:44;;;;;;;;;;;;;;;19.20;99.26;101435.72;5008380;28;19906;-82
2023/08/09 07:51:32;;;;;;;;;;;;;;;19.31;97.15;101434.06;5085668;23;20448;-79
2023/08/09 07:57:24;;;;;;;;;;;;;;;19.45;91.96;101443.78;5086964;23;20013;-83
2023/08/09 08:00:12;;;;;;;;;;;;;;;19.43;94.34;101453.81;5179711;23;20617;-85
2023/08/09 08:02:58;;;;;;;;;;;;;;;19.34;89.72;101448.13;4994283;28;19917;-82
2023/08/09 08:05:44;;;;;;;;;;;;;;;19.37;88.91;101460.44;4969385;28;19925;-85
2023/08/09 08:08:30;;;;;;;;;;;;;;;19.33;88.49;101459.81;4994779;28;19932;-85
2023/08/09 08:11:15;;;;;;;;;;;;;;;19.32;90.15;101465.28;4989625;23;20358;-85
2023/08/09 08:14:01;;;;;;;;;;;;;;;19.28;88.93;101459.28;4947969;28;20558;-82
2023/08/09 08:16:48;;;;;;;;;;;;;;;19.37;88.96;101464.00;4959019;28;19940;-83
2023/08/09 08:19:34;;;;;;;;;;;;;;;19.45;85.84;101473.31;4960611;28;19921;-83
2023/08/09 08:22:20;;;;;;;;;;;;;;;19.51;83.10;101476.41;4962529;28;19948;-83
2023/08/09 08:25:06;;;;;;;;;;;;;;;19.43;80.65;101478.81;4976294;28;19964;-83
2023/08/09 08:27:51;;;;;;;;;;;;;;;19.40;83.95;101473.66;4961045;28;19933;-80
2023/08/09 08:30:38;;;;;;;;;;;;;;;19.44;81.08;101477.81;4961812;28;20018;-81
2023/08/09 08:33:24;;;;;;;;;;;;;;;19.52;78.38;101485.31;4959087;28;20566;-81
2023/08/09 08:36:13;;;;;;;;;;;;;;;19.58;78.36;101494.75;4952383;28;19930;-77
2023/08/09 08:38:59;;;;;;;;;;;;;;;19.66;77.74;101489.66;4954985;28;20378;-78
2023/08/09 08:41:48;;;;;;;;;;;;;;;19.69;77.95;101489.44;4952766;28;20522;-78
2023/08/09 08:44:35;;;;;;;;;;;;;;;19.68;79.21;101493.94;4952058;28;19926;-78
2023/08/09 08:47:20;;;;;;;;;;;;;;;19.62;78.58;101490.88;4953115;28;20418;-79
2023/08/09 08:50:08;;;;;;;;;;;;;;;19.68;75.95;101498.50;4952006;28;19933;-77
2023/08/09 08:52:53;;;;;;;;;;;;;;;19.65;78.05;101504.06;4951649;28;19925;-76
2023/08/09 08:55:42;;;;;;;;;;;;;;;19.61;79.79;101499.91;4953729;28;20028;-78
2023/08/09 08:58:28;;;;;;;;;;;;;;;19.53;81.06;101509.38;4952722;28;20024;-78
2023/08/09 09:01:15;;;;;;;;;;;;;;;19.44;77.31;101511.88;4943116;28;20532;-79
2023/08/09 09:04:01;;;;;;;;;;;;;;;19.36;80.26;101507.94;4938295;28;19930;-78
2023/08/09 09:06:47;;;;;;;;;;;;;;;19.44;78.31;101504.69;4937734;28;21413;-77
2023/08/09 09:09:33;;;;;;;;;;;;;;;19.61;79.43;101502.59;4956605;28;19938;-83
2023/08/09 09:12:19;;;;;;;;;;;;;;;19.72;78.14;101507.16;4959784;28;20014;-83
2023/08/09 09:15:06;;;;;;;;;;;;;;;19.74;78.33;101510.59;4954066;28;19922;-85
2023/08/09 09:17:52;;;;;;;;;;;;;;;19.78;78.19;101509.41;4928006;28;19926;-79
2023/08/09 09:20:38;;;;;;;;;;;;;;;19.87;81.94;101508.72;4932418;28;20378;-80
2023/08/09 09:23:24;;;;;;;;;;;;;;;19.95;77.53;101511.69;4931088;28;19918;-78
2023/08/09 09:26:19;;;;;;;;;;;;;;;19.89;76.62;101501.38;4934086;28;19925;-79
2023/08/09 09:29:08;;;;;;;;;;;;;;;19.78;80.03;101510.25;4950410;28;20400;-78
2023/08/09 09:31:55;;;;;;;;;;;;;;;19.65;77.75;101504.06;4941348;28;19937;-79
2023/08/09 09:34:41;;;;;;;;;;;;;;;19.63;80.07;101512.25;4940630;28;20021;-81
2023/08/09 09:37:28;;;;;;;;;;;;;;;19.66;80.22;101503.97;4945288;28;20385;-81
2023/08/09 09:40:23;;;;;;;;;;;;;;;19.77;80.56;101507.69;4931987;28;19918;-79
2023/08/09 09:43:09;;;;;;;;;;;;;;;19.75;76.35;101512.31;4953519;28;19977;-79
2023/08/09 09:45:55;;;;;;;;;;;;;;;19.63;76.04;101506.88;4934024;28;19965;-77
2023/08/09 09:48:50;;;;;;;;;;;;;;;19.71;78.07;101500.09;4957258;28;20022;-81
2023/08/09 09:51:35;;;;;;;;;;;;;;;19.89;79.48;101496.00;4955604;28;19927;-77
2023/08/09 09:54:22;;;;;;;;;;;;;;;19.97;78.81;101498.16;4936916;28;20057;-79
2023/08/09 09:57:07;;;;;;;;;;;;;;;19.97;77.26;101514.28;4929484;28;19928;-75
2023/08/09 09:59:59;;;;;;;;;;;;;;;19.93;77.83;101508.25;4938378;28;20449;-82
2023/08/09 10:02:49;;;;;;;;;;;;;;;19.97;81.24;101510.72;4941640;28;20064;-90
2023/08/09 10:05:36;;;;;;;;;;;;;;;19.98;77.29;101510.63;4938115;28;20488;-81
2023/08/09 10:08:22;;;;;;;;;;;;;;;20.02;78.89;101516.63;4942853;28;19926;-83
2023/08/09 10:11:11;;;;;;;;;;;;;;;20.03;77.64;101508.44;4937222;28;19933;-84
2023/08/09 10:13:57;;;;;;;;;;;;;;;20.03;79.05;101510.25;4935398;28;19930;-82
2023/08/09 10:16:45;;;;;;;;;;;;;;;20.00;74.80;101515.88;4943776;28;19926;-80
2023/08/09 10:19:30;;;;;;;;;;;;;;;19.97;75.48;101516.97;4937376;28;19959;-81
2023/08/09 10:22:18;;;;;;;;;;;;;;;19.98;73.73;101516.00;4937461;28;20029;-85
2023/08/09 10:25:04;;;;;;;;;;;;;;;20.01;76.17;101522.97;4947372;28;19926;-85
2023/08/09 10:28:01;;;;;;;;;;;;;;;19.90;71.05;101518.38;4951922;28;19927;-88
2023/08/09 10:30:50;;;;;;;;;;;;;;;19.89;72.66;101522.88;4950548;28;19925;-91
2023/08/09 10:33:36;;;;;;;;;;;;;;;19.90;77.93;101526.44;4953968;28;19923;-91
2023/08/09 10:36:31;;;;;;;;;;;;;;;19.89;74.15;101528.25;4954164;28;19932;-91
2023/08/09 10:39:24;;;;;;;;;;;;;;;19.91;76.96;101525.44;4955738;28;19933;-88
2023/08/09 10:42:11;;;;;;;;;;;;;;;19.99;79.61;101535.66;4950339;28;19930;-84
2023/08/09 10:45:03;;;;;;;;;;;;;;;20.01;83.57;101533.72;4946486;28;20391;-88
2023/08/09 10:47:53;;;;;;;;;;;;;;;19.98;79.23;101536.66;4946601;28;19926;-90
2023/08/09 10:50:42;;;;;;;;;;;;;;;19.91;75.98;101545.13;4946777;28;20517;-89
2023/08/09 10:53:30;;;;;;;;;;;;;;;19.80;75.84;101545.06;4944055;28;19926;-87
2023/08/09 10:56:37;;;;;;;;;;;;;;;19.75;79.73;101550.78;4960742;28;19922;-91
2023/08/09 10:59:24;;;;;;;;;;;;;;;19.74;74.67;101542.81;4943367;28;19926;-86
2023/08/09 11:02:10;;;;;;;;;;;;;;;19.77;79.26;101556.03;4959348;28;20012;-90
2023/08/09 11:04:58;;;;;;;;;;;;;;;19.74;74.74;101548.19;4948274;28;19930;-85
2023/08/09 11:07:44;;;;;;;;;;;;;;;19.62;77.99;101552.66;4959665;28;19926;-86
2023/08/09 11:10:42;;;;;;;;;;;;;;;19.48;76.51;101546.44;4962029;28;19977;-87
2023/08/09 11:13:29;;;;;;;;;;;;;;;19.38;80.85;101557.00;4960220;28;21138;-86
2023/08/09 11:16:15;;;;;;;;;;;;;;;19.25;80.76;101567.75;4957025;28;19922;-88
2023/08/09 11:19:10;;;;;;;;;;;;;;;19.13;82.77;101564.09;4950727;28;19939;-88
2023/08/09 11:21:56;;;;;;;;;;;;;;;19.06;86.75;101576.22;4956220;28;21599;-86
2023/08/09 11:24:42;;;;;;;;;;;;;;;19.04;90.24;101577.31;4958917;28;19918;-87
2023/08/09 11:27:28;;;;;;;;;;;;;;;19.12;90.67;101580.34;4958243;28;19926;-89
2023/08/09 11:33:34;;;;;;;;;;;;;;;19.28;89.10;101588.13;4956108;28;19949;-91
2023/08/09 11:36:20;;;;;;;;;;;;;;;19.32;91.79;101586.97;4969107;28;19918;-87
2023/08/09 11:39:07;;;;;;;;;;;;;;;19.39;94.28;101585.56;4957423;28;20480;-86
2023/08/09 11:41:56;;;;;;;;;;;;;;;19.39;93.10;101601.66;4956819;28;19910;-89
2023/08/09 11:44:43;;;;;;;;;;;;;;;19.35;94.46;101600.16;4951393;28;19933;-88
2023/08/09 11:47:29;;;;;;;;;;;;;;;19.41;95.01;101610.44;4949902;28;20053;-87
2023/08/09 11:50:24;;;;;;;;;;;;;;;19.42;92.85;101608.63;4947111;28;20057;-85
2023/08/09 11:53:10;;;;;;;;;;;;;;;19.53;92.12;101611.44;4941270;28;19954;-86
2023/08/09 11:56:02;;;;;;;;;;;;;;;19.53;88.69;101607.88;4957457;28;19990;-89
2023/08/09 11:58:50;;;;;;;;;;;;;;;19.48;86.32;101610.03;4961266;28;19922;-87
2023/08/09 12:01:42;;;;;;;;;;;;;;;19.64;86.50;101607.09;4951476;28;19941;-81
2023/08/09 12:04:29;;;;;;;;;;;;;;;19.78;87.90;101627.59;4972689;28;19926;-78
2023/08/09 12:07:18;;;;;;;;;;;;;;;19.83;82.74;101625.41;4962051;28;20479;-80
2023/08/09 12:10:15;;;;;;;;;;;;;;;19.86;84.50;101630.59;4965979;28;19922;-81
2023/08/09 12:13:03;;;;;;;;;;;;;;;19.71;76.96;101626.31;4937068;28;19922;-80
2023/08/09 12:15:49;;;;;;;;;;;;;;;19.67;80.26;101623.84;4943844;28;19922;-81
2023/08/09 12:18:36;;;;;;;;;;;;;;;19.74;83.61;101628.78;4957803;28;20254;-81
2023/08/09 12:21:24;;;;;;;;;;;;;;;19.84;75.05;101637.91;4954954;28;19918;-81
2023/08/09 12:24:12;;;;;;;;;;;;;;;19.92;69.03;101637.31;4947694;28;19937;-79
2023/08/09 12:26:58;;;;;;;;;;;;;;;19.99;75.35;101640.47;4942268;28;19922;-78
2023/08/09 12:29:44;;;;;;;;;;;;;;;20.01;76.45;101650.13;4951462;28;19946;-81
2023/08/09 12:32:29;;;;;;;;;;;;;;;20.01;80.85;101649.28;4961871;28;19926;-80
2023/08/09 12:35:15;;;;;;;;;;;;;;;19.94;79.72;101644.31;4954962;28;19930;-79
2023/08/09 12:38:01;;;;;;;;;;;;;;;19.89;77.89;101656.38;4948440;28;19933;-79
2023/08/09 12:40:50;;;;;;;;;;;;;;;19.79;80.90;101659.69;4943800;28;19930;-80
2023/08/09 12:43:35;;;;;;;;;;;;;;;19.69;82.90;101664.03;4951110;28;19929;-80
2023/08/09 12:46:21;;;;;;;;;;;;;;;19.60;83.81;101664.69;4932775;28;19977;-79
2023/08/09 12:49:07;;;;;;;;;;;;;;;19.67;84.28;101665.97;4941738;28;20401;-80
2023/08/09 12:51:52;;;;;;;;;;;;;;;19.58;82.19;101662.13;4919842;28;20016;-82
2023/08/09 12:54:38;;;;;;;;;;;;;;;19.46;81.83;101654.94;4929225;28;20571;-80
2023/08/09 12:57:24;;;;;;;;;;;;;;;19.38;79.73;101674.25;4917926;28;20010;-80
2023/08/09 13:00:12;;;;;;;;;;;;;;;19.38;80.98;101668.88;4912238;28;20793;-81
2023/08/09 13:02:57;;;;;;;;;;;;;;;19.48;82.81;101661.91;4941846;28;20373;-80
2023/08/09 13:05:46;;;;;;;;;;;;;;;19.49;79.24;101665.44;4911950;28;19937;-80
2023/08/09 13:08:31;;;;;;;;;;;;;;;19.47;79.25;101679.00;4914551;28;19925;-79
2023/08/09 13:11:17;;;;;;;;;;;;;;;19.61;81.92;101680.69;4943161;28;20017;-79
2023/08/09 13:14:03;;;;;;;;;;;;;;;19.67;84.49;101674.88;4926424;28;21820;-80
2023/08/09 13:16:48;;;;;;;;;;;;;;;19.85;79.41;101684.41;4942855;28;20017;-79
2023/08/09 13:19:34;;;;;;;;;;;;;;;19.94;80.90;101691.84;4943973;28;20032;-79
2023/08/09 13:22:20;;;;;;;;;;;;;;;20.01;80.89;101692.25;4943792;28;19930;-79
2023/08/09 13:25:08;;;;;;;;;;;;;;;19.94;81.96;101691.84;4913380;28;20008;-80
2023/08/09 13:27:54;;;;;;;;;;;;;;;19.82;82.95;101688.19;4928698;28;19942;-80
2023/08/09 13:30:39;;;;;;;;;;;;;;;19.83;83.23;101706.00;4926591;28;20366;-82
2023/08/09 13:33:25;;;;;;;;;;;;;;;19.64;82.43;101698.41;4929316;28;19980;-79
2023/08/09 13:36:11;;;;;;;;;;;;;;;19.43;84.10;101707.00;4945539;28;19926;-81
2023/08/09 13:38:56;;;;;;;;;;;;;;;19.33;84.29;101703.25;4942093;28;19926;-81
2023/08/09 13:41:42;;;;;;;;;;;;;;;19.34;83.44;101708.50;4935847;28;19936;-80
2023/08/09 13:44:27;;;;;;;;;;;;;;;19.48;83.96;101712.91;4939665;28;21469;-80
2023/08/09 13:47:13;;;;;;;;;;;;;;;19.43;87.22;101717.75;4935846;28;20326;-80
2023/08/09 13:49:59;;;;;;;;;;;;;;;19.36;86.68;101714.66;4923450;28;19930;-80
2023/08/09 13:52:45;;;;;;;;;;;;;;;19.44;86.26;101718.63;4940086;28;20013;-80
2023/08/09 13:55:30;;;;;;;;;;;;;;;19.58;81.66;101710.44;4910837;28;19933;-81
2023/08/09 13:58:16;;;;;;;;;;;;;;;19.68;86.23;101724.94;4941112;28;19926;-82
2023/08/09 14:01:02;;;;;;;;;;;;;;;19.70;85.68;101730.22;4935184;28;19927;-80
2023/08/09 14:03:48;;;;;;;;;;;;;;;19.75;82.53;101736.13;4923252;28;19940;-77
2023/08/09 14:06:34;;;;;;;;;;;;;;;19.78;85.35;101740.44;4908859;28;19934;-79
2023/08/09 14:09:20;;;;;;;;;;;;;;;19.93;85.94;101727.72;4908491;28;20287;-80
2023/08/09 14:12:06;;;;;;;;;;;;;;;19.99;86.08;101734.53;4939915;28;20573;-80
2023/08/09 14:14:52;;;;;;;;;;;;;;;19.81;89.04;101727.63;4938073;28;19934;-81
2023/08/09 14:17:37;;;;;;;;;;;;;;;19.59;86.39;101739.03;4920227;28;19960;-81
2023/08/09 14:20:23;;;;;;;;;;;;;;;19.48;85.88;101750.50;4944870;28;19926;-79
2023/08/09 14:23:12;;;;;;;;;;;;;;;19.32;86.44;101755.19;4939575;28;20660;-81
2023/08/09 14:25:57;;;;;;;;;;;;;;;19.16;85.57;101760.78;4910096;28;19934;-79
2023/08/09 14:28:43;;;;;;;;;;;;;;;19.06;88.42;101761.38;4921731;28;19926;-80
2023/08/09 14:31:29;;;;;;;;;;;;;;;18.96;84.10;101765.63;4939765;28;19931;-81
2023/08/09 14:34:14;;;;;;;;;;;;;;;18.93;86.28;101776.53;4924007;28;20294;-79
2023/08/09 14:37:01;;;;;;;;;;;;;;;18.88;87.28;101763.44;4928422;28;20385;-82
2023/08/09 14:39:47;;;;;;;;;;;;;;;18.91;85.51;101773.97;4925521;28;20381;-81
2023/08/09 14:42:34;;;;;;;;;;;;;;;18.94;84.67;101772.91;4938890;28;19930;-81
2023/08/09 14:45:19;;;;;;;;;;;;;;;18.84;83.42;101769.97;4924887;28;20376;-80
2023/08/09 14:48:05;;;;;;;;;;;;;;;18.67;86.23;101768.38;4936646;28;20385;-82
2023/08/09 14:50:54;;;;;;;;;;;;;;;18.62;85.27;101776.75;4922531;28;19926;-81
2023/08/09 14:53:40;;;;;;;;;;;;;;;18.61;85.04;101784.91;4937757;28;19926;-81
2023/08/09 14:56:25;;;;;;;;;;;;;;;18.63;86.21;101786.50;4934808;28;20411;-81
2023/08/09 14:59:11;;;;;;;;;;;;;;;18.63;84.07;101783.81;4939872;28;19944;-81
2023/08/09 15:01:57;;;;;;;;;;;;;;;18.64;88.22;101790.06;4903548;28;19926;-83
2023/08/09 15:04:43;;;;;;;;;;;;;;;18.68;87.96;101799.63;4937941;28;19977;-80
2023/08/09 15:07:29;;;;;;;;;;;;;;;18.70;90.82;101803.91;4921374;28;19933;-80
2023/08/09 15:10:15;;;;;;;;;;;;;;;18.73;87.33;101806.41;4937535;28;19953;-81
2023/08/09 15:13:01;;;;;;;;;;;;;;;18.86;85.76;101802.94;4905496;29;19930;-83
2023/08/09 15:15:47;;;;;;;;;;;;;;;19.07;85.72;101802.50;4903399;29;20325;-82
2023/08/09 15:18:33;;;;;;;;;;;;;;;19.25;85.86;101803.97;4913855;28;19928;-82
2023/08/09 15:21:18;;;;;;;;;;;;;;;19.41;83.76;101803.75;4920054;29;20358;-82
2023/08/09 15:24:04;;;;;;;;;;;;;;;19.53;85.21;101810.13;4920027;29;19985;-82
2023/08/09 15:26:50;;;;;;;;;;;;;;;19.51;83.91;101812.03;4893648;29;19931;-82
2023/08/09 15:29:36;;;;;;;;;;;;;;;19.29;82.53;101812.66;4904531;29;19927;-81
2023/08/09 15:32:22;;;;;;;;;;;;;;;19.16;83.84;101814.47;4902663;29;19969;-78
2023/08/09 15:35:08;;;;;;;;;;;;;;;18.98;78.88;101806.63;4900168;29;20426;-81
2023/08/09 15:37:54;;;;;;;;;;;;;;;18.86;84.56;101814.50;4897515;29;19931;-80
2023/08/09 15:40:40;;;;;;;;;;;;;;;18.66;83.74;101813.13;4914579;29;20068;-81
2023/08/09 15:43:25;;;;;;;;;;;;;;;18.49;85.91;101810.66;4923695;29;20082;-86
2023/08/09 15:46:11;;;;;;;;;;;;;;;18.43;87.64;101818.13;4910391;29;19941;-81
2023/08/09 15:48:57;;;;;;;;;;;;;;;18.42;85.66;101805.69;4922422;29;20030;-87
2023/08/09 15:51:45;;;;;;;;;;;;;;;18.42;86.11;101805.69;4895415;29;21858;-83
2023/08/09 15:54:32;;;;;;;;;;;;;;;18.53;87.01;101807.69;4921146;28;19957;-83
2023/08/09 15:57:17;;;;;;;;;;;;;;;18.61;87.26;101814.41;4920513;29;19937;-81